»·PEaware :: SWA884 KMCO-KDAL

SWA884 :: KMCO-KDAL

FLIGHT INFORMATION

Flight Status: Arrived
Operator:
Southwest Airlines
More flights by this operator :: More flights under this callsign
Pilot: Drew L. (13237)
Aircraft: BOEING 737-800
(B738)
More flights by this aircraft type
Origin: KMCO Orlando Intl
United States
Destination: KDAL Dallas Love
United States
More flights between these airports :: More routes between these airports
Route: CAMDT PATOY JAWJA CABLO DEFUN J2 CEW AEX PNUTS REDDN4
File this flight plan on PilotEdge
Remarks: RMK / SIMBRIEF
Altitude:
(Current/Filed)
34,000ft
Speed:
(Current/Filed)
466kts
Departed: 17-Mar-19 04:55 AM
Arrived: 17-Mar-19 07:28 AM
Distance/Time
Traveled:
843nm/2:33
Distance/Time
To Go:
Arrived

Flight Plot

Page will automatically refresh every two minutes.

Flight plan parsing failed; only flown route is shown


Map Options




Map Legend


Flown Route
Filed Route
Departure Airport
Arrival Airport
Navaid (VOR, NDB)
Fix

Horizontal Profiles

Position Reports

Time Latitude Longitude Heading Altitude Ground
Speed
17-Mar-19 04:36 28.434854 -81.302356 30 103ft 0kts
17-Mar-19 04:37 28.434854 -81.302356 30 103ft 0kts
17-Mar-19 04:38 28.434854 -81.302356 30 103ft 0kts
17-Mar-19 04:39 28.434854 -81.302356 30 103ft 0kts
17-Mar-19 04:40 28.434854 -81.302356 30 103ft 0kts
17-Mar-19 04:41 28.434854 -81.302356 30 103ft 0kts
17-Mar-19 04:42 28.434854 -81.302356 30 103ft 0kts
17-Mar-19 04:43 28.434854 -81.302356 30 103ft 0kts
17-Mar-19 04:44 28.434853 -81.302356 30 103ft 0kts
17-Mar-19 04:45 28.434853 -81.302356 30 103ft 0kts
17-Mar-19 04:46 28.434663 -81.302483 30 103ft 2kts
17-Mar-19 04:47 28.434245 -81.302761 30 104ft 0kts
17-Mar-19 04:48 28.434244 -81.302761 30 103ft 0kts
17-Mar-19 04:49 28.436382 -81.304440 38 103ft 24kts
17-Mar-19 04:50 28.439208 -81.305150 274 108ft 19kts
17-Mar-19 04:51 28.439304 -81.313405 266 108ft 34kts
17-Mar-19 04:52 28.440972 -81.320055 0 103ft 20kts
17-Mar-19 04:53 28.448093 -81.320343 311 103ft 15kts
17-Mar-19 04:54 28.443434 -81.322274 179 103ft 85kts
17-Mar-19 04:55 28.398831 -81.322442 182 1444ft 185kts
17-Mar-19 04:56 28.366664 -81.360633 277 3231ft 209kts
17-Mar-19 04:57 28.378745 -81.424319 297 5304ft 217kts
17-Mar-19 04:58 28.411396 -81.493894 298 7293ft 266kts
17-Mar-19 04:59 28.446674 -81.568560 297 10137ft 274kts
17-Mar-19 05:00 28.486155 -81.652362 295 12162ft 313kts
17-Mar-19 05:01 28.527541 -81.740378 294 15108ft 321kts
17-Mar-19 05:02 28.569961 -81.830808 294 17889ft 330kts
17-Mar-19 05:03 28.613548 -81.923940 293 20425ft 339kts
17-Mar-19 05:04 28.658285 -82.019746 293 22740ft 348kts
17-Mar-19 05:05 28.704185 -82.118258 292 24860ft 356kts
17-Mar-19 05:06 28.750963 -82.218884 292 26780ft 364kts
17-Mar-19 05:07 28.798734 -82.321875 292 28544ft 372kts
17-Mar-19 05:08 28.847526 -82.427319 291 30147ft 380kts
17-Mar-19 05:09 28.897108 -82.534679 291 31806ft 382kts
17-Mar-19 05:10 28.946026 -82.640770 290 33593ft 375kts
17-Mar-19 05:11 28.994975 -82.747759 290 34209ft 386kts
17-Mar-19 05:12 29.044465 -82.856041 289 34211ft 388kts
17-Mar-19 05:13 29.108336 -82.955144 314 34231ft 416kts
17-Mar-19 05:14 29.210999 -83.019454 313 34233ft 414kts
17-Mar-19 05:15 29.304478 -83.095881 312 34235ft 414kts
17-Mar-19 05:16 29.397675 -83.172347 313 34233ft 413kts
17-Mar-19 05:17 29.490937 -83.249051 312 34233ft 414kts
17-Mar-19 05:18 29.583810 -83.325558 312 34230ft 412kts
17-Mar-19 05:19 29.658384 -83.416293 284 34242ft 375kts
17-Mar-19 05:20 29.685032 -83.530098 277 34229ft 367kts
17-Mar-19 05:21 29.709353 -83.644248 277 34226ft 368kts
17-Mar-19 05:22 29.733490 -83.758702 277 34244ft 367kts
17-Mar-19 05:23 29.757465 -83.873034 277 34245ft 367kts
17-Mar-19 05:24 29.781384 -83.987484 277 34248ft 368kts
17-Mar-19 05:25 29.805306 -84.102364 277 34249ft 368kts
17-Mar-19 05:26 29.829045 -84.216780 277 34245ft 368kts
17-Mar-19 05:27 29.852717 -84.331269 277 34242ft 366kts
17-Mar-19 05:28 29.876216 -84.445368 277 34240ft 367kts
17-Mar-19 05:29 29.899761 -84.560098 277 34238ft 367kts
17-Mar-19 05:30 29.923153 -84.674597 276 34257ft 367kts
17-Mar-19 05:31 29.946283 -84.789156 276 34254ft 366kts
17-Mar-19 05:32 29.969297 -84.903599 277 34252ft 366kts
17-Mar-19 05:33 29.992267 -85.018262 277 34249ft 366kts
17-Mar-19 05:34 30.015094 -85.132617 277 34248ft 367kts
17-Mar-19 05:35 30.037951 -85.247572 277 34245ft 367kts
17-Mar-19 05:36 30.060769 -85.362735 277 34240ft 367kts
17-Mar-19 05:37 30.083445 -85.477677 277 34239ft 368kts
17-Mar-19 05:38 30.106017 -85.592627 277 34231ft 367kts
17-Mar-19 05:39 30.128607 -85.708222 277 34250ft 369kts
17-Mar-19 05:40 30.150894 -85.823592 277 34245ft 368kts
17-Mar-19 05:41 30.173099 -85.938832 277 34244ft 367kts
17-Mar-19 05:42 30.195227 -86.054017 277 34250ft 366kts
17-Mar-19 05:43 30.217237 -86.169346 277 34258ft 367kts
17-Mar-19 05:44 30.239121 -86.284480 277 34258ft 367kts
17-Mar-19 05:45 30.260987 -86.399877 277 34256ft 367kts
17-Mar-19 05:46 30.282734 -86.515206 277 34252ft 367kts
17-Mar-19 05:47 30.304438 -86.630593 277 34245ft 367kts
17-Mar-19 05:48 30.325281 -86.742643 277 34262ft 367kts
17-Mar-19 05:49 30.346685 -86.858511 277 34260ft 367kts
17-Mar-19 05:50 30.367887 -86.973845 277 34259ft 366kts
17-Mar-19 05:51 30.388992 -87.089039 277 34262ft 367kts
17-Mar-19 05:52 30.409985 -87.204110 278 34260ft 366kts
17-Mar-19 05:53 30.430876 -87.319110 278 34258ft 365kts
17-Mar-19 05:54 30.451815 -87.434847 278 34260ft 366kts
17-Mar-19 05:55 30.472650 -87.550488 278 34267ft 366kts
17-Mar-19 05:56 30.493397 -87.666181 277 34289ft 366kts
17-Mar-19 05:57 30.513790 -87.781490 277 34295ft 366kts
17-Mar-19 05:58 30.534149 -87.897138 277 34297ft 366kts
17-Mar-19 05:59 30.554415 -88.012753 277 34303ft 366kts
17-Mar-19 06:00 30.574568 -88.128195 277 34306ft 366kts
17-Mar-19 06:01 30.594608 -88.243493 277 34295ft 366kts
17-Mar-19 06:02 30.614645 -88.359265 277 34286ft 365kts
17-Mar-19 06:03 30.634562 -88.474851 277 34284ft 366kts
17-Mar-19 06:04 30.654367 -88.590307 277 34281ft 365kts
17-Mar-19 06:05 30.673865 -88.704896 277 34304ft 366kts
17-Mar-19 06:06 30.693350 -88.820741 277 34306ft 364kts
17-Mar-19 06:07 30.712497 -88.934903 277 34304ft 358kts
17-Mar-19 06:08 30.731293 -89.047519 277 34301ft 352kts
17-Mar-19 06:09 30.749856 -89.159379 277 34304ft 353kts
17-Mar-19 06:10 30.768348 -89.271239 277 34311ft 352kts
17-Mar-19 06:11 30.786739 -89.382915 277 34319ft 354kts
17-Mar-19 06:12 30.805127 -89.495103 277 34332ft 351kts
17-Mar-19 06:13 30.823368 -89.606736 277 34334ft 351kts
17-Mar-19 06:14 30.841432 -89.718622 277 34355ft 352kts
17-Mar-19 06:15 30.859326 -89.830635 277 34352ft 353kts
17-Mar-19 06:16 30.877155 -89.942629 277 34351ft 352kts
17-Mar-19 06:17 30.894876 -90.054541 277 34347ft 353kts
17-Mar-19 06:18 30.912608 -90.166961 276 34343ft 354kts
17-Mar-19 06:19 30.930301 -90.279775 276 34341ft 355kts
17-Mar-19 06:20 30.948026 -90.393219 276 34339ft 356kts
17-Mar-19 06:21 30.965730 -90.507030 276 34339ft 358kts
17-Mar-19 06:22 30.983389 -90.621211 276 34337ft 360kts
17-Mar-19 06:23 31.000930 -90.736060 276 34354ft 360kts
17-Mar-19 06:24 31.018367 -90.851371 275 34351ft 362kts
17-Mar-19 06:26 31.035801 -90.967208 275 34350ft 364kts
17-Mar-19 06:27 31.053178 -91.083119 275 34361ft 360kts
17-Mar-19 06:28 31.070283 -91.197784 275 34373ft 358kts
17-Mar-19 06:29 31.087242 -91.312034 275 34373ft 357kts
17-Mar-19 06:30 31.103887 -91.424764 275 34368ft 358kts
17-Mar-19 06:31 31.120677 -91.539090 275 34364ft 358kts
17-Mar-19 06:32 31.137367 -91.653367 275 34362ft 357kts
17-Mar-19 06:33 31.153777 -91.767766 275 34378ft 357kts
17-Mar-19 06:34 31.170099 -91.882269 275 34375ft 358kts
17-Mar-19 06:35 31.186327 -91.996611 275 34373ft 358kts
17-Mar-19 06:36 31.202411 -92.110476 275 34371ft 357kts
17-Mar-19 06:37 31.218526 -92.225167 275 34370ft 357kts
17-Mar-19 06:38 31.234478 -92.339403 275 34367ft 356kts
17-Mar-19 06:39 31.250287 -92.453628 275 34364ft 357kts
17-Mar-19 06:40 31.278339 -92.566067 285 34361ft 365kts
17-Mar-19 06:41 31.316176 -92.675940 285 34381ft 364kts
17-Mar-19 06:42 31.353739 -92.786393 285 34378ft 365kts
17-Mar-19 06:42 31.384884 -92.878206 285 34380ft 365kts
17-Mar-19 06:44 31.428291 -93.006561 285 34382ft 364kts
17-Mar-19 06:45 31.465466 -93.116859 285 34387ft 364kts
17-Mar-19 06:45 31.496404 -93.208909 284 34391ft 364kts
17-Mar-19 06:47 31.539422 -93.337281 285 34395ft 364kts
17-Mar-19 06:48 31.576383 -93.447928 285 34393ft 364kts
17-Mar-19 06:48 31.607151 -93.540237 285 34392ft 364kts
17-Mar-19 06:50 31.652880 -93.668191 285 34412ft 365kts
17-Mar-19 06:51 31.692095 -93.778088 285 34409ft 365kts
17-Mar-19 06:51 31.724677 -93.869618 286 34406ft 365kts
17-Mar-19 06:52 31.763729 -93.979564 285 34404ft 365kts
17-Mar-19 06:53 31.802555 -94.089145 286 34402ft 364kts
17-Mar-19 06:54 31.841471 -94.199306 286 34399ft 364kts
17-Mar-19 06:55 31.880289 -94.309506 286 34403ft 365kts
17-Mar-19 06:56 31.919128 -94.420038 285 34402ft 365kts
17-Mar-19 06:57 31.956796 -94.530657 282 34394ft 362kts
17-Mar-19 06:58 31.986924 -94.643886 281 34381ft 361kts
17-Mar-19 06:59 32.015054 -94.750641 281 34402ft 362kts
17-Mar-19 07:00 32.044883 -94.863811 281 33608ft 363kts
17-Mar-19 07:01 32.075077 -94.978516 282 31839ft 373kts
17-Mar-19 07:02 32.106136 -95.096801 283 30037ft 383kts
17-Mar-19 07:03 32.137990 -95.218460 283 28216ft 392kts
17-Mar-19 07:04 32.170355 -95.342481 284 26324ft 401kts
17-Mar-19 07:05 32.204050 -95.469310 285 24296ft 408kts
17-Mar-19 07:06 32.235937 -95.589317 285 22748ft 362kts
17-Mar-19 07:07 32.265050 -95.699640 285 20849ft 345kts
17-Mar-19 07:08 32.292030 -95.802600 285 18948ft 341kts
17-Mar-19 07:09 32.319776 -95.908792 286 16754ft 336kts
17-Mar-19 07:10 32.347236 -96.014322 287 14549ft 334kts
17-Mar-19 07:11 32.374447 -96.119182 287 12343ft 333kts
17-Mar-19 07:12 32.401399 -96.223427 287 10152ft 332kts
17-Mar-19 07:13 32.425991 -96.318931 287 9990ft 277kts
17-Mar-19 07:14 32.467003 -96.392258 325 9130ft 270kts
17-Mar-19 07:15 32.529305 -96.441115 326 9000ft 274kts
17-Mar-19 07:16 32.593330 -96.490751 327 8879ft 272kts
17-Mar-19 07:17 32.654954 -96.537451 327 8285ft 264kts
17-Mar-19 07:18 32.716136 -96.583918 327 7081ft 259kts
17-Mar-19 07:19 32.771782 -96.635605 318 6142ft 245kts
17-Mar-19 07:20 32.819204 -96.686779 317 5304ft 220kts
17-Mar-19 07:21 32.864292 -96.735439 317 4301ft 217kts
17-Mar-19 07:22 32.904552 -96.778883 318 4224ft 186kts
17-Mar-19 07:23 32.934569 -96.826127 288 3211ft 186kts
17-Mar-19 07:24 32.924790 -96.882408 229 2138ft 178kts
17-Mar-19 07:25 32.884278 -96.888065 139 1214ft 150kts
17-Mar-19 07:26 32.854684 -96.853784 135 493ft 144kts
17-Mar-19 07:27 32.844582 -96.843132 271 488ft 15kts
17-Mar-19 07:28 32.846338 -96.847389 249 488ft 5kts
17-Mar-19 07:29 32.846283 -96.847549 247 488ft 0kts

Navigation Log

Ident Type
Flight plan parsing failed, navigation log unavailable